createdAt,value
2023-09-13T00:00:17.542Z,9.43
2023-09-13T00:02:47.338Z,11.68
2023-09-13T00:05:15.882Z,8.55
2023-09-13T00:07:44.351Z,10.27
2023-09-13T00:10:13.004Z,11.55
2023-09-13T00:12:41.577Z,11.43
2023-09-13T00:15:11.114Z,12.95
2023-09-13T00:17:40.107Z,9.18
2023-09-13T00:20:12.706Z,10.68
2023-09-13T00:22:41.165Z,11.55
2023-09-13T00:25:11.349Z,10.07
2023-09-13T00:27:40.250Z,10.73
2023-09-13T00:30:12.058Z,7.78
2023-09-13T00:32:40.847Z,12.18
2023-09-13T00:35:11.569Z,9.35
2023-09-13T00:37:40.653Z,12.85
2023-09-13T00:40:10.633Z,11.65
2023-09-13T00:42:39.463Z,11.25
2023-09-13T00:45:09.705Z,8.75
2023-09-13T00:47:39.348Z,11.13
2023-09-13T00:50:14.496Z,9.45
2023-09-13T00:52:45.708Z,10.43
2023-09-13T00:55:17.715Z,9.73
2023-09-13T00:57:49.471Z,9.35
2023-09-13T01:00:20.116Z,8.10
2023-09-13T01:02:49.075Z,9.98
2023-09-13T01:05:20.015Z,9.70
2023-09-13T01:07:50.440Z,11.90
2023-09-13T01:10:21.089Z,12.05
2023-09-13T01:12:49.746Z,9.35
2023-09-13T01:15:18.465Z,10.35
2023-09-13T01:17:52.444Z,10.35
2023-09-13T01:20:33.710Z,11.48
2023-09-13T01:23:24.302Z,9.30
2023-09-13T01:26:11.414Z,9.57
2023-09-13T01:28:47.709Z,9.77
2023-09-13T01:31:22.260Z,9.30
2023-09-13T01:33:51.277Z,9.27
2023-09-13T01:36:20.037Z,10.00
2023-09-13T01:38:48.937Z,8.68
2023-09-13T01:41:33.246Z,9.70
2023-09-13T01:44:03.700Z,9.00
2023-09-13T01:46:36.886Z,8.40
2023-09-13T01:49:07.578Z,6.93
2023-09-13T01:51:36.533Z,9.40
2023-09-13T01:54:05.446Z,9.70
2023-09-13T01:56:34.108Z,8.10
2023-09-13T01:59:04.746Z,11.98
2023-09-13T02:01:33.515Z,11.75
2023-09-13T02:04:02.135Z,10.63
2023-09-13T02:06:31.102Z,11.43
2023-09-13T02:08:59.886Z,8.18
2023-09-13T02:11:28.503Z,8.90
2023-09-13T02:13:57.436Z,12.05
2023-09-13T02:16:27.659Z,12.40
2023-09-13T02:18:56.602Z,10.13
2023-09-13T02:21:25.298Z,9.73
2023-09-13T02:23:55.172Z,10.88
2023-09-13T02:26:25.018Z,7.38
2023-09-13T02:28:54.018Z,9.40
2023-09-13T02:31:28.556Z,11.65
2023-09-13T02:33:57.972Z,11.38
2023-09-13T02:36:26.627Z,14.65
2023-09-13T02:38:56.055Z,11.45
2023-09-13T02:41:24.635Z,9.43
2023-09-13T02:43:53.188Z,11.18
2023-09-13T02:46:21.720Z,10.77
2023-09-13T02:48:51.924Z,11.43
2023-09-13T02:51:20.324Z,9.20
2023-09-13T02:53:49.050Z,12.05
2023-09-13T02:56:17.650Z,9.02
2023-09-13T02:58:46.431Z,10.18
2023-09-13T03:01:14.867Z,9.80
2023-09-13T03:03:43.685Z,8.68
2023-09-13T03:06:16.699Z,13.35
2023-09-13T03:08:45.636Z,8.73
2023-09-13T03:11:14.748Z,11.55
2023-09-13T03:13:44.226Z,10.57
2023-09-13T03:16:15.300Z,8.00
2023-09-13T03:18:44.242Z,11.85
2023-09-13T03:21:15.148Z,9.18
2023-09-13T03:23:46.906Z,11.35
2023-09-13T03:26:17.025Z,8.88
2023-09-13T03:28:47.379Z,10.27
2023-09-13T03:31:18.015Z,9.00
2023-09-13T03:33:48.718Z,11.75
2023-09-13T03:36:19.837Z,8.52
2023-09-13T03:38:49.086Z,10.88
2023-09-13T03:41:20.124Z,10.95
2023-09-13T03:43:49.291Z,11.75
2023-09-13T03:46:18.337Z,11.15
2023-09-13T03:48:48.930Z,10.07
2023-09-13T03:51:20.355Z,12.15
2023-09-13T03:53:50.785Z,11.80
2023-09-13T03:56:19.342Z,8.20
2023-09-13T03:58:47.707Z,11.57
2023-09-13T04:01:16.625Z,13.05
2023-09-13T04:03:45.709Z,12.63
2023-09-13T04:06:14.921Z,9.48
2023-09-13T04:08:45.227Z,11.05
2023-09-13T04:11:13.895Z,13.98
2023-09-13T04:13:42.596Z,10.85
2023-09-13T04:16:16.701Z,10.02
2023-09-13T04:18:45.310Z,10.20
2023-09-13T04:21:14.204Z,9.50
2023-09-13T04:23:42.923Z,7.88
2023-09-13T04:26:14.676Z,10.20
2023-09-13T04:28:46.648Z,9.65
2023-09-13T04:31:15.320Z,10.00
2023-09-13T04:33:55.675Z,12.95
2023-09-13T04:36:25.048Z,10.45
2023-09-13T04:38:53.373Z,8.13
2023-09-13T04:41:23.545Z,13.40
2023-09-13T04:43:52.181Z,9.70
2023-09-13T04:46:20.765Z,10.52
2023-09-13T04:48:49.712Z,11.00
2023-09-13T04:51:18.254Z,10.55
2023-09-13T04:53:47.029Z,8.25
2023-09-13T04:56:15.969Z,10.10
2023-09-13T04:58:46.082Z,11.65
2023-09-13T05:01:14.732Z,13.98
2023-09-13T05:03:43.609Z,10.32
2023-09-13T05:06:12.452Z,10.35
2023-09-13T05:08:41.533Z,11.00
2023-09-13T05:11:10.075Z,10.57
2023-09-13T05:13:40.924Z,10.75
2023-09-13T05:16:14.343Z,9.50
2023-09-13T05:18:43.206Z,13.73
2023-09-13T05:21:11.579Z,12.15
2023-09-13T05:23:40.046Z,12.57
2023-09-13T05:26:09.818Z,9.40
2023-09-13T05:28:38.290Z,9.15
2023-09-13T05:31:07.161Z,12.48
2023-09-13T05:33:37.171Z,12.55
2023-09-13T05:36:09.601Z,9.27
2023-09-13T05:38:38.363Z,13.38
2023-09-13T05:41:09.036Z,10.88
2023-09-13T05:43:37.730Z,9.50
2023-09-13T05:46:07.218Z,7.78
2023-09-13T05:48:38.838Z,11.75
2023-09-13T05:51:07.328Z,10.77
2023-09-13T05:53:36.118Z,11.13
2023-09-13T05:56:05.988Z,12.27
2023-09-13T05:58:34.473Z,12.57
2023-09-13T06:01:03.577Z,11.50
2023-09-13T06:03:33.811Z,13.57
2023-09-13T06:06:05.201Z,12.13
2023-09-13T06:08:33.626Z,12.88
2023-09-13T06:11:02.270Z,10.93
2023-09-13T06:13:30.845Z,14.13
2023-09-13T06:15:59.449Z,12.63
2023-09-13T06:18:28.348Z,12.75
2023-09-13T06:20:57.205Z,11.85
2023-09-13T06:23:38.434Z,16.65
2023-09-13T06:26:07.399Z,10.60
2023-09-13T06:28:36.171Z,11.45
2023-09-13T06:31:05.510Z,13.45
2023-09-13T06:36:08.311Z,12.23
2023-09-13T06:38:39.691Z,12.98
2023-09-13T06:41:09.112Z,14.68
2023-09-13T06:43:39.275Z,11.77
2023-09-13T06:46:14.464Z,13.65
2023-09-13T06:48:56.379Z,10.05
2023-09-13T06:54:09.922Z,8.63
2023-09-13T06:56:41.536Z,15.25
2023-09-13T06:59:21.644Z,14.07
2023-09-13T07:02:21.036Z,16.08
2023-09-13T07:07:47.231Z,13.90
2023-09-13T07:10:23.541Z,11.88
2023-09-13T07:12:52.887Z,16.25
2023-09-13T07:15:34.219Z,12.25
2023-09-13T07:18:04.251Z,14.00
2023-09-13T07:20:56.957Z,13.73
2023-09-13T07:23:57.015Z,15.05
2023-09-13T07:26:44.838Z,19.08
2023-09-13T07:29:21.761Z,16.08
2023-09-13T07:31:54.542Z,24.35
2023-09-13T07:34:31.634Z,14.77
2023-09-13T07:37:01.389Z,12.43
2023-09-13T07:39:29.903Z,12.18
2023-09-13T07:42:03.674Z,13.57
2023-09-13T07:44:36.279Z,14.55
2023-09-13T07:47:05.767Z,10.35
2023-09-13T07:49:46.943Z,12.88
2023-09-13T07:52:37.552Z,12.07
2023-09-13T07:55:12.883Z,14.20
2023-09-13T07:57:57.030Z,16.45
2023-09-13T08:00:25.423Z,15.60
2023-09-13T08:02:54.068Z,15.15
2023-09-13T08:05:22.603Z,12.48
2023-09-13T08:07:51.781Z,10.75
2023-09-13T08:10:20.194Z,14.60
2023-09-13T08:12:50.957Z,10.85
2023-09-13T08:15:22.743Z,13.23
2023-09-13T08:17:56.209Z,13.05
2023-09-13T08:20:30.672Z,15.32
2023-09-13T08:22:59.272Z,15.00
2023-09-13T08:25:28.598Z,10.88
2023-09-13T08:27:58.602Z,13.85
2023-09-13T08:30:27.472Z,10.15
2023-09-13T08:32:56.024Z,9.40
2023-09-13T08:35:24.597Z,11.82
2023-09-13T08:37:53.197Z,7.88
2023-09-13T08:40:21.994Z,8.73
2023-09-13T08:42:51.042Z,9.23
2023-09-13T08:45:21.564Z,8.60
2023-09-13T08:47:58.519Z,8.57
2023-09-13T08:50:30.395Z,9.27
2023-09-13T08:53:02.040Z,11.30
2023-09-13T08:55:32.646Z,10.13
2023-09-13T08:58:03.157Z,9.65
2023-09-13T09:00:38.473Z,10.13
2023-09-13T09:03:08.667Z,11.88
2023-09-13T09:05:38.957Z,9.57
2023-09-13T09:08:07.926Z,11.68
2023-09-13T09:10:37.707Z,8.65
2023-09-13T09:13:08.687Z,8.70
2023-09-13T09:15:42.205Z,10.02
2023-09-13T09:18:13.066Z,9.40
2023-09-13T09:20:43.074Z,7.03
2023-09-13T09:23:12.977Z,12.60
2023-09-13T09:25:46.665Z,12.23
2023-09-13T09:28:15.128Z,12.27
2023-09-13T09:30:47.107Z,12.75
2023-09-13T09:33:16.730Z,15.60
2023-09-13T09:35:55.786Z,11.25
2023-09-13T09:38:25.650Z,15.35
2023-09-13T09:40:58.705Z,14.73
2023-09-13T09:43:27.493Z,14.88
2023-09-13T09:45:59.397Z,10.98
2023-09-13T09:48:29.676Z,9.73
2023-09-13T09:51:00.975Z,10.15
2023-09-13T09:53:30.649Z,13.38
2023-09-13T09:56:02.436Z,10.02
2023-09-13T09:58:34.768Z,10.35
2023-09-13T10:01:05.864Z,12.25
2023-09-13T10:03:36.012Z,15.80
2023-09-13T10:06:14.283Z,10.70
2023-09-13T10:08:48.306Z,16.30
2023-09-13T10:11:33.201Z,13.30
2023-09-13T10:14:05.576Z,11.02
2023-09-13T10:16:47.198Z,15.10
2023-09-13T10:19:16.090Z,11.77
2023-09-13T10:21:46.468Z,9.13
2023-09-13T10:24:20.318Z,11.63
2023-09-13T10:27:00.442Z,12.55
2023-09-13T10:29:35.720Z,9.68
2023-09-13T10:32:19.700Z,9.55
2023-09-13T10:38:31.122Z,15.57
2023-09-13T10:41:06.490Z,13.25
2023-09-13T10:43:35.832Z,7.05
2023-09-13T10:46:05.505Z,11.93
2023-09-13T10:48:38.099Z,10.85
2023-09-13T10:51:07.628Z,10.77
2023-09-13T10:53:35.968Z,10.88
2023-09-13T10:56:06.190Z,12.32
2023-09-13T10:58:35.538Z,10.75
2023-09-13T11:01:04.216Z,12.57
2023-09-13T11:03:35.047Z,11.23
2023-09-13T11:06:16.469Z,7.75
2023-09-13T11:08:47.910Z,12.68
2023-09-13T11:11:19.446Z,6.78
2023-09-13T11:13:50.892Z,8.02
2023-09-13T11:16:20.206Z,10.30
2023-09-13T11:18:51.431Z,7.55
2023-09-13T11:21:26.603Z,8.27
2023-09-13T11:24:03.536Z,7.90
2023-09-13T11:26:47.533Z,5.93
2023-09-13T11:29:25.835Z,12.35
2023-09-13T11:32:07.725Z,8.63
2023-09-13T11:34:42.703Z,9.88
2023-09-13T11:37:21.162Z,12.55
2023-09-13T11:39:57.224Z,12.32
2023-09-13T11:42:37.411Z,13.57
2023-09-13T11:45:25.330Z,5.45
2023-09-13T11:48:08.808Z,8.70
2023-09-13T11:50:53.220Z,12.18
2023-09-13T11:53:29.158Z,6.25
2023-09-13T11:56:12.478Z,10.13
2023-09-13T11:58:57.714Z,8.13
2023-09-13T12:01:29.931Z,7.65
2023-09-13T12:07:07.435Z,8.18
2023-09-13T12:09:39.358Z,9.57
2023-09-13T12:12:12.303Z,7.97
2023-09-13T12:15:02.046Z,9.02
2023-09-13T12:17:45.456Z,8.68
2023-09-13T12:20:20.075Z,10.68
2023-09-13T12:22:53.595Z,15.15
2023-09-13T12:25:25.797Z,11.68
2023-09-13T12:28:28.776Z,7.32
2023-09-13T12:31:06.614Z,10.45
2023-09-13T12:33:40.853Z,9.93
2023-09-13T12:36:28.081Z,7.30
2023-09-13T12:39:22.706Z,8.13
2023-09-13T12:41:54.110Z,6.60
2023-09-13T12:44:25.627Z,7.10
2023-09-13T12:46:56.859Z,6.40
2023-09-13T12:49:32.391Z,7.70
2023-09-13T12:55:26.415Z,5.10
2023-09-13T12:58:05.876Z,10.68
2023-09-13T13:00:51.036Z,8.02
2023-09-13T13:03:31.661Z,6.53
2023-09-13T13:06:04.387Z,5.80
2023-09-13T13:08:39.187Z,4.80
2023-09-13T13:11:11.184Z,4.70
2023-09-13T13:13:42.142Z,5.50
2023-09-13T13:16:40.639Z,7.70
2023-09-13T13:22:10.818Z,6.03
2023-09-13T13:24:42.684Z,5.45
2023-09-13T13:27:22.614Z,9.15
2023-09-13T13:29:53.568Z,10.70
2023-09-13T13:32:22.929Z,6.03
2023-09-13T13:34:52.738Z,6.43
2023-09-13T13:37:29.913Z,7.22
2023-09-13T13:40:01.496Z,9.23
2023-09-13T13:42:32.223Z,9.93
2023-09-13T13:45:14.377Z,9.68
2023-09-13T13:48:08.068Z,7.30
2023-09-13T13:50:52.984Z,7.25
2023-09-13T13:53:37.759Z,8.65
2023-09-13T13:56:10.178Z,6.82
2023-09-13T13:58:44.832Z,8.18
2023-09-13T14:01:20.081Z,6.65
2023-09-13T14:04:08.999Z,8.48
2023-09-13T14:06:38.046Z,7.85
2023-09-13T14:09:06.683Z,6.70
2023-09-13T14:11:37.754Z,10.40
2023-09-13T14:14:08.800Z,7.20
2023-09-13T14:16:37.507Z,6.85
2023-09-13T14:19:06.927Z,7.70
2023-09-13T14:21:38.501Z,8.10
2023-09-13T14:24:09.070Z,8.00
2023-09-13T14:26:38.254Z,6.93
2023-09-13T14:29:12.783Z,6.40
2023-09-13T14:31:46.535Z,11.20
2023-09-13T14:34:25.385Z,4.97
2023-09-13T14:36:54.766Z,11.93
2023-09-13T14:39:25.194Z,7.43
2023-09-13T14:41:54.958Z,7.13
2023-09-13T14:44:25.021Z,7.50
2023-09-13T14:46:54.614Z,6.88
2023-09-13T14:49:23.266Z,6.22
2023-09-13T14:51:57.524Z,6.43
2023-09-13T14:54:34.902Z,5.68
2023-09-13T14:57:04.418Z,6.43
2023-09-13T14:59:43.854Z,8.82
2023-09-13T15:02:17.144Z,7.07
2023-09-13T15:04:51.659Z,6.78
2023-09-13T15:07:23.073Z,5.65
2023-09-13T15:09:52.227Z,8.65
2023-09-13T15:12:27.937Z,8.25
2023-09-13T15:14:58.360Z,6.50
2023-09-13T15:17:26.701Z,8.38
2023-09-13T15:19:55.372Z,8.02
2023-09-13T15:22:35.342Z,7.80
2023-09-13T15:25:18.113Z,4.03
2023-09-13T15:27:53.959Z,7.05
2023-09-13T15:30:28.989Z,7.68
2023-09-13T15:33:04.257Z,8.55
2023-09-13T15:35:38.098Z,6.18
2023-09-13T15:38:09.697Z,4.95
2023-09-13T15:40:52.191Z,7.20
2023-09-13T15:43:25.514Z,5.45
2023-09-13T15:46:08.024Z,5.65
2023-09-13T15:48:36.654Z,7.22
2023-09-13T15:51:05.397Z,7.18
2023-09-13T15:53:34.882Z,4.45
2023-09-13T15:56:03.718Z,5.38
2023-09-13T15:58:32.742Z,5.45
2023-09-13T16:01:03.395Z,10.07
2023-09-13T16:03:31.940Z,6.07
2023-09-13T16:06:00.513Z,4.18
2023-09-13T16:08:28.851Z,4.60
2023-09-13T16:10:57.447Z,7.85
2023-09-13T16:13:26.565Z,5.53
2023-09-13T16:15:55.246Z,5.07
2023-09-13T16:18:25.334Z,7.38
2023-09-13T16:20:53.996Z,6.32
2023-09-13T16:23:22.645Z,5.50
2023-09-13T16:25:51.319Z,6.43
2023-09-13T16:28:20.681Z,7.55
2023-09-13T16:30:49.865Z,7.95
2023-09-13T16:33:19.151Z,8.02
2023-09-13T16:35:49.677Z,5.50
2023-09-13T16:38:18.170Z,5.90
2023-09-13T16:40:46.783Z,7.07
2023-09-13T16:43:15.609Z,5.00
2023-09-13T16:45:44.112Z,4.40
2023-09-13T16:48:23.731Z,6.50
2023-09-13T16:50:58.259Z,5.05
2023-09-13T16:53:27.042Z,6.68
2023-09-13T16:55:56.921Z,5.50
2023-09-13T16:58:26.140Z,4.28
2023-09-13T17:00:58.183Z,6.10
2023-09-13T17:03:27.315Z,6.40
2023-09-13T17:05:58.447Z,6.15
2023-09-13T17:08:26.929Z,5.80
2023-09-13T17:10:55.422Z,5.32
2023-09-13T17:13:25.139Z,4.18
2023-09-13T17:15:54.839Z,5.72
2023-09-13T17:18:24.409Z,4.97
2023-09-13T17:20:54.344Z,4.63
2023-09-13T17:23:24.340Z,5.72
2023-09-13T17:25:54.354Z,4.25
2023-09-13T17:28:22.955Z,5.47
2023-09-13T17:30:51.472Z,4.60
2023-09-13T17:33:19.989Z,3.67
2023-09-13T17:35:50.648Z,7.88
2023-09-13T17:38:19.282Z,3.67
2023-09-13T17:40:49.678Z,7.13
2023-09-13T17:43:18.127Z,7.97
2023-09-13T17:45:46.936Z,5.97
2023-09-13T17:48:15.479Z,5.93
2023-09-13T17:50:45.645Z,5.53
2023-09-13T17:53:15.846Z,3.63
2023-09-13T17:55:45.041Z,7.22
2023-09-13T17:58:15.436Z,8.90
2023-09-13T18:00:44.077Z,10.40
2023-09-13T18:03:12.628Z,6.03
2023-09-13T18:05:41.007Z,5.28
2023-09-13T18:08:12.489Z,5.30
2023-09-13T18:10:41.108Z,5.38
2023-09-13T18:13:09.843Z,8.93
2023-09-13T18:15:40.087Z,5.90
2023-09-13T18:18:09.094Z,9.23
2023-09-13T18:20:37.930Z,9.43
2023-09-13T18:23:07.136Z,7.20
2023-09-13T18:25:38.147Z,3.92
2023-09-13T18:28:08.225Z,4.45
2023-09-13T18:30:39.373Z,4.55
2023-09-13T18:33:09.425Z,7.93
2023-09-13T18:35:38.080Z,4.80
2023-09-13T18:38:06.680Z,5.32
2023-09-13T18:40:38.667Z,7.57
2023-09-13T18:43:07.227Z,3.60
2023-09-13T18:45:38.563Z,9.00
2023-09-13T18:48:09.453Z,4.03
2023-09-13T18:50:37.904Z,7.07
2023-09-13T18:53:06.686Z,7.82
2023-09-13T18:55:35.628Z,10.80
2023-09-13T18:58:04.531Z,4.57
2023-09-13T19:00:34.052Z,6.47
2023-09-13T19:03:02.907Z,5.53
2023-09-13T19:05:33.069Z,4.10
2023-09-13T19:08:01.593Z,3.65
2023-09-13T19:10:29.893Z,3.35
2023-09-13T19:12:59.698Z,3.17
2023-09-13T19:15:28.729Z,4.78
2023-09-13T19:17:57.467Z,2.17
2023-09-13T19:20:26.062Z,4.53
2023-09-13T19:22:56.287Z,5.45
2023-09-13T19:25:24.759Z,3.42
2023-09-13T19:27:53.127Z,3.15
2023-09-13T19:30:21.691Z,4.00
2023-09-13T19:32:53.102Z,6.60
2023-09-13T19:35:23.003Z,4.70
2023-09-13T19:37:51.407Z,5.45
2023-09-13T19:40:21.287Z,4.18
2023-09-13T19:42:49.857Z,5.47
2023-09-13T19:45:18.481Z,5.63
2023-09-13T19:47:46.905Z,7.90
2023-09-13T19:50:15.992Z,6.55
2023-09-13T19:52:44.481Z,5.55
2023-09-13T19:55:14.035Z,4.53
2023-09-13T19:57:43.960Z,5.80
2023-09-13T20:00:12.921Z,4.22
2023-09-13T20:02:42.932Z,6.07
2023-09-13T20:05:11.851Z,5.05
2023-09-13T20:07:40.352Z,5.13
2023-09-13T20:10:11.622Z,7.57
2023-09-13T20:12:41.127Z,5.22
2023-09-13T20:15:11.592Z,7.80
2023-09-13T20:17:41.492Z,4.88
2023-09-13T20:20:11.960Z,6.82
2023-09-13T20:22:40.462Z,4.50
2023-09-13T20:25:09.724Z,5.45
2023-09-13T20:27:38.502Z,7.55
2023-09-13T20:30:08.671Z,6.78
2023-09-13T20:32:38.776Z,5.93
2023-09-13T20:35:07.978Z,7.03
2023-09-13T20:37:47.053Z,4.93
2023-09-13T20:40:17.196Z,9.23
2023-09-13T20:42:45.836Z,5.63
2023-09-13T20:45:14.777Z,4.75
2023-09-13T20:47:45.030Z,5.78
2023-09-13T20:50:19.466Z,4.57
2023-09-13T20:52:48.017Z,5.88
2023-09-13T20:55:16.784Z,4.82
2023-09-13T20:57:45.395Z,3.25
2023-09-13T21:00:14.751Z,5.47
2023-09-13T21:02:45.252Z,3.67
2023-09-13T21:05:14.088Z,5.28
2023-09-13T21:07:42.567Z,5.32
2023-09-13T21:10:12.298Z,4.97
2023-09-13T21:12:41.034Z,4.47
2023-09-13T21:15:10.658Z,7.05
2023-09-13T21:17:39.125Z,5.55
2023-09-13T21:20:11.140Z,3.67
2023-09-13T21:22:39.995Z,5.53
2023-09-13T21:25:10.220Z,5.25
2023-09-13T21:27:38.692Z,4.10
2023-09-13T21:30:08.851Z,3.33
2023-09-13T21:32:37.579Z,4.32
2023-09-13T21:35:09.043Z,9.40
2023-09-13T21:37:37.953Z,6.50
2023-09-13T21:40:08.723Z,6.35
2023-09-13T21:42:37.846Z,4.85
2023-09-13T21:45:07.523Z,2.88
2023-09-13T21:47:36.091Z,2.58
2023-09-13T21:50:05.273Z,4.32
2023-09-13T21:52:35.343Z,3.97
2023-09-13T21:55:04.027Z,6.85
2023-09-13T21:57:32.638Z,4.57
2023-09-13T22:00:01.324Z,2.97
2023-09-13T22:02:30.224Z,4.45
2023-09-13T22:05:00.758Z,3.65
2023-09-13T22:07:30.665Z,6.25
2023-09-13T22:10:00.856Z,2.95
2023-09-13T22:12:31.578Z,7.00
2023-09-13T22:15:00.251Z,5.55
2023-09-13T22:17:28.997Z,6.30
2023-09-13T22:19:57.992Z,4.38
2023-09-13T22:22:27.127Z,4.72
2023-09-13T22:24:56.958Z,4.68
2023-09-13T22:27:26.970Z,6.13
2023-09-13T22:29:57.241Z,5.68
2023-09-13T22:32:25.860Z,5.97
2023-09-13T22:34:56.186Z,5.63
2023-09-13T22:37:25.295Z,5.90
2023-09-13T22:39:54.407Z,3.70
2023-09-13T22:42:23.021Z,5.55
2023-09-13T22:44:55.049Z,5.35
2023-09-13T22:47:23.770Z,7.35
2023-09-13T22:49:52.569Z,7.22
2023-09-13T22:52:25.907Z,6.38
2023-09-13T22:54:56.020Z,4.18
2023-09-13T22:57:24.624Z,5.90
2023-09-13T22:59:54.739Z,5.93
2023-09-13T23:02:23.512Z,5.70
2023-09-13T23:04:52.059Z,6.35
2023-09-13T23:07:21.291Z,6.82
2023-09-13T23:09:50.019Z,6.28
2023-09-13T23:12:18.476Z,7.22
2023-09-13T23:14:47.031Z,6.85
2023-09-13T23:17:17.778Z,5.78
2023-09-13T23:19:46.367Z,7.68
2023-09-13T23:22:15.014Z,6.32
2023-09-13T23:24:43.677Z,7.72
2023-09-13T23:27:12.227Z,7.28
2023-09-13T23:29:41.064Z,6.47
2023-09-13T23:32:09.839Z,7.88
2023-09-13T23:34:41.555Z,6.88
2023-09-13T23:37:10.108Z,10.00
2023-09-13T23:39:41.821Z,7.35
2023-09-13T23:42:10.316Z,10.52
2023-09-13T23:44:38.810Z,12.75
2023-09-13T23:47:07.267Z,8.15
2023-09-13T23:49:35.846Z,9.45
2023-09-13T23:52:09.470Z,10.50
2023-09-13T23:54:38.055Z,12.82
2023-09-13T23:57:06.806Z,7.10
